Time;durP1;ratioP1;P1;durP2;ratioP2;P2;SDS_P1;SDS_P2;PMS_P1;PMS_P2;Temp;Humidity;BMP_temperature;BMP_pressure;BME280_temperature;BME280_humidity;BME280_pressure;Samples;Min_cycle;Max_cycle;Signal;HPM_P1;HPM_P2
2020/12/28 00:00:29;;;;;;;6.97;5.50;;;;;;;22.19;27.53;93483.31;5055090;28;20370;-52
2020/12/28 00:02:57;;;;;;;5.82;4.55;;;;;;;22.30;27.76;93494.69;5035368;28;20053;-54
2020/12/28 00:05:25;;;;;;;4.38;3.05;;;;;;;22.39;27.06;93487.88;5051564;28;20048;-53
2020/12/28 00:07:52;;;;;;;2.30;1.80;;;;;;;23.10;26.16;93473.66;5055004;28;20056;-52
2020/12/28 00:10:20;;;;;;;4.25;2.90;;;;;;;22.89;26.56;93497.69;5042142;28;20045;-52
2020/12/28 00:12:48;;;;;;;3.10;2.10;;;;;;;23.29;25.84;93493.78;5042225;28;20048;-54
2020/12/28 00:15:22;;;;;;;1.60;0.95;;;;;;;24.09;23.02;93495.66;5047937;28;20079;-54
2020/12/28 00:17:52;;;;;;;2.67;1.40;;;;;;;24.90;22.21;93503.00;5034874;28;20080;-51
2020/12/28 00:20:21;;;;;;;2.03;0.80;;;;;;;24.95;21.49;93474.34;5034506;28;20053;-50
2020/12/28 00:22:48;;;;;;;3.15;2.40;;;;;;;24.38;23.62;93480.97;5034784;28;20050;-53
2020/12/28 00:25:20;;;;;;;2.40;1.65;;;;;;;24.07;23.13;93471.28;5038003;28;20482;-52
2020/12/28 00:27:48;;;;;;;2.45;1.88;;;;;;;24.72;23.04;93480.28;5034500;28;20440;-54
2020/12/28 00:30:15;;;;;;;2.05;1.30;;;;;;;25.02;21.89;93469.72;5034385;28;20053;-53
2020/12/28 00:32:42;;;;;;;1.98;1.25;;;;;;;24.90;21.94;93456.81;5034477;28;20056;-57
2020/12/28 00:35:10;;;;;;;2.15;1.70;;;;;;;24.69;23.37;93460.47;5047581;28;20049;-54
2020/12/28 00:37:38;;;;;;;2.35;1.80;;;;;;;24.51;23.60;93467.91;5054699;28;20052;-52
2020/12/28 00:40:07;;;;;;;2.60;2.03;;;;;;;23.84;24.68;93459.22;5054326;28;20045;-56
2020/12/28 00:42:34;;;;;;;3.08;2.10;;;;;;;23.63;25.04;93468.09;5048800;28;20052;-53
2020/12/28 00:45:02;;;;;;;2.83;2.10;;;;;;;23.55;25.39;93484.53;5065899;28;20044;-53
2020/12/28 00:47:30;;;;;;;3.38;1.90;;;;;;;23.23;26.15;93487.34;5050490;28;20057;-53
2020/12/28 00:49:58;;;;;;;4.03;1.67;;;;;;;23.07;26.29;93485.09;5033352;28;20049;-53
2020/12/28 00:52:25;;;;;;;3.55;2.00;;;;;;;23.52;25.79;93501.31;5033563;28;20069;-57
2020/12/28 00:54:52;;;;;;;3.15;2.17;;;;;;;24.80;23.98;93500.47;5054982;28;20055;-53
2020/12/28 00:57:19;;;;;;;2.58;2.22;;;;;;;23.74;25.85;93494.00;5074260;28;20045;-54
2020/12/28 00:59:48;;;;;;;3.63;2.30;;;;;;;23.21;26.55;93478.97;5073024;28;20059;-53
2020/12/28 01:02:22;;;;;;;3.85;3.45;;;;;;;23.81;25.31;93493.94;5073057;28;20055;-53
2020/12/28 01:04:58;;;;;;;4.07;3.08;;;;;;;23.51;25.58;93489.13;5089352;28;20048;-54
2020/12/28 01:07:30;;;;;;;3.72;2.78;;;;;;;22.85;26.72;93502.28;5089778;28;20396;-52
2020/12/28 01:10:07;;;;;;;4.28;3.35;;;;;;;22.55;27.22;93466.16;5058557;28;20366;-54
2020/12/28 01:12:35;;;;;;;3.90;2.90;;;;;;;22.74;27.01;93481.72;5038537;28;20049;-56
2020/12/28 01:15:07;;;;;;;4.20;3.33;;;;;;;22.80;26.99;93494.66;5077387;28;20048;-55
2020/12/28 01:17:42;;;;;;;3.80;3.00;;;;;;;22.51;27.15;93452.09;5052992;28;20064;-53
2020/12/28 01:20:18;;;;;;;6.60;5.10;;;;;;;22.74;27.01;93481.72;5052726;28;20375;-55
2020/12/28 01:22:50;;;;;;;4.30;2.78;;;;;;;23.64;25.54;93492.88;5052728;28;20052;-52
2020/12/28 01:25:17;;;;;;;3.92;2.70;;;;;;;23.30;25.79;93480.06;5053640;28;20045;-53
2020/12/28 01:27:57;;;;;;;3.90;2.92;;;;;;;24.24;24.42;93476.50;5049399;28;20364;-54
2020/12/28 01:30:27;;;;;;;3.70;2.88;;;;;;;23.95;25.00;93483.94;5032500;28;20049;-57
2020/12/28 01:33:02;;;;;;;4.35;2.95;;;;;;;23.58;25.44;93489.88;5049310;28;20053;-53
2020/12/28 01:35:40;;;;;;;5.55;4.45;;;;;;;24.29;24.64;93494.03;5048343;28;20057;-51
2020/12/28 01:38:09;;;;;;;6.25;4.55;;;;;;;24.66;24.18;93493.31;5052663;28;20371;-54
2020/12/28 01:40:36;;;;;;;6.45;5.18;;;;;;;23.67;25.48;93468.84;5047974;28;20368;-52
2020/12/28 01:43:23;;;;;;;7.03;5.15;;;;;;;23.49;25.92;93483.41;5060197;28;20642;-53
2020/12/28 01:45:50;;;;;;;5.80;4.97;;;;;;;23.56;25.93;93491.41;5035657;28;20053;-53
2020/12/28 01:48:22;;;;;;;;;;;;;;;24.04;25.18;93464.81;5035922;28;20072;-53
2020/12/28 01:50:50;;;;;;;6.80;5.40;;;;;;;22.73;27.17;93466.13;5035128;28;19925;-54
2020/12/28 01:53:18;;;;;;;6.25;5.00;;;;;;;23.34;26.27;93472.81;5019611;28;20053;-55
2020/12/28 01:56:03;;;;;;;5.18;3.90;;;;;;;23.90;25.14;93468.31;5033122;28;20053;-55
2020/12/28 01:58:35;;;;;;;5.78;4.00;;;;;;;23.04;26.62;93456.56;5049046;28;20045;-55
2020/12/28 02:01:03;;;;;;;6.43;4.50;;;;;;;22.72;26.81;93461.94;5074728;28;20075;-54
2020/12/28 02:03:32;;;;;;;6.10;4.68;;;;;;;22.98;26.56;93474.84;5072417;28;20371;-56
2020/12/28 02:06:14;;;;;;;5.53;4.38;;;;;;;22.19;27.57;93449.47;5069736;28;20046;-53
2020/12/28 02:08:43;;;;;;;5.75;4.50;;;;;;;22.00;27.83;93463.88;5035979;28;20049;-56
2020/12/28 02:11:10;;;;;;;6.68;5.30;;;;;;;21.72;28.27;93461.94;5043223;28;20044;-54
2020/12/28 02:13:37;;;;;;;7.43;6.55;;;;;;;21.54;28.49;93451.25;5055696;28;20064;-53
2020/12/28 02:16:24;;;;;;;9.25;8.30;;;;;;;21.44;28.59;93446.69;5058013;28;20373;-57
2020/12/28 02:19:01;;;;;;;8.00;7.15;;;;;;;21.36;28.86;93450.47;5074658;28;20049;-57
2020/12/28 02:21:37;;;;;;;8.73;7.15;;;;;;;21.52;28.45;93452.78;5042956;28;20048;-52
2020/12/28 02:24:06;;;;;;;10.07;8.02;;;;;;;20.97;29.30;93452.94;5039439;28;20049;-56
2020/12/28 02:26:37;;;;;;;9.40;8.02;;;;;;;21.75;28.14;93447.13;5052436;28;20064;-52
2020/12/28 02:29:04;;;;;;;10.07;7.68;;;;;;;21.14;28.78;93460.22;5037048;28;20053;-52
2020/12/28 02:31:32;;;;;;;10.80;8.30;;;;;;;20.87;29.40;93445.69;5042878;28;20384;-53
2020/12/28 02:34:19;;;;;;;7.82;6.43;;;;;;;21.24;28.97;93456.09;5056552;28;20049;-54
2020/12/28 02:36:59;;;;;;;7.93;6.50;;;;;;;21.38;28.83;93453.50;5035710;28;20112;-52
2020/12/28 02:39:42;;;;;;;8.70;6.78;;;;;;;21.72;27.94;93453.97;5051903;28;20061;-54
2020/12/28 02:42:09;;;;;;;7.88;7.07;;;;;;;21.76;28.14;93459.28;5035556;28;20080;-57
2020/12/28 02:44:55;;;;;;;8.35;7.10;;;;;;;21.89;27.94;93455.13;5036594;28;20045;-55
2020/12/28 02:47:41;;;;;;;5.75;4.47;;;;;;;22.18;27.54;93476.47;5036479;28;20383;-52
2020/12/28 02:50:26;;;;;;;7.03;5.50;;;;;;;21.84;27.81;93471.44;5048677;28;20078;-54
2020/12/28 02:53:12;;;;;;;6.22;5.38;;;;;;;21.85;28.33;93475.63;5076417;28;20052;-53
2020/12/28 02:55:57;;;;;;;6.55;5.43;;;;;;;21.54;28.83;93472.53;5076431;28;20051;-52
2020/12/28 02:58:43;;;;;;;6.50;5.30;;;;;;;21.52;28.76;93476.69;5076103;28;20051;-52
2020/12/28 03:01:29;;;;;;;6.47;5.72;;;;;;;21.46;29.01;93471.00;5060856;28;20053;-52
2020/12/28 03:04:14;;;;;;;8.48;6.15;;;;;;;21.53;29.17;93481.66;5056320;28;20076;-56
2020/12/28 03:07:04;;;;;;;6.93;6.10;;;;;;;21.28;29.46;93469.41;5027786;28;20055;-53
2020/12/28 03:09:50;;;;;;;7.07;6.35;;;;;;;22.17;28.06;93469.63;5056457;28;20055;-57
2020/12/28 03:12:36;;;;;;;7.65;6.18;;;;;;;21.83;28.67;93453.97;5069733;28;20367;-55
2020/12/28 03:15:22;;;;;;;7.10;5.88;;;;;;;22.13;28.34;93465.06;5055195;28;20363;-54
2020/12/28 03:18:07;;;;;;;8.40;6.57;;;;;;;22.11;28.25;93461.22;5045975;28;20464;-50
2020/12/28 03:20:55;;;;;;;8.70;6.50;;;;;;;22.43;27.89;93463.91;5053787;28;20045;-55
2020/12/28 03:23:41;;;;;;;8.13;6.60;;;;;;;23.60;26.05;93465.47;5076131;28;20048;-54
2020/12/28 03:26:26;;;;;;;8.38;7.15;;;;;;;23.43;26.10;93474.31;5035741;28;20057;-54
2020/12/28 03:29:13;;;;;;;8.27;7.35;;;;;;;22.21;27.68;93470.38;5035825;28;20056;-51
2020/12/28 03:31:59;;;;;;;8.93;7.50;;;;;;;22.25;28.10;93466.56;5070971;28;20049;-53
2020/12/28 03:34:52;;;;;;;9.23;7.47;;;;;;;21.91;28.53;93454.75;5006195;28;20448;-55
2020/12/28 03:37:48;;;;;;;8.65;7.50;;;;;;;21.71;28.69;93452.44;4935111;28;20055;-54
2020/12/28 03:40:34;;;;;;;8.52;7.53;;;;;;;22.04;28.11;93463.91;5021230;28;20337;-53
2020/12/28 03:43:20;;;;;;;11.20;8.30;;;;;;;21.41;28.85;93466.06;5035005;28;20050;-54
2020/12/28 03:46:05;;;;;;;8.73;7.80;;;;;;;21.23;29.55;93457.22;5035386;28;20049;-55
2020/12/28 03:48:50;;;;;;;10.20;8.02;;;;;;;21.25;29.34;93465.59;5035432;28;20064;-55
2020/12/28 03:51:36;;;;;;;19.35;14.10;;;;;;;21.35;29.39;93464.13;5027334;28;20341;-53
2020/12/28 03:54:21;;;;;;;11.05;8.20;;;;;;;21.38;28.96;93472.13;5015608;28;20049;-53
2020/12/28 03:57:07;;;;;;;10.43;8.35;;;;;;;21.06;29.65;93468.53;5015610;28;20546;-55
2020/12/28 04:00:00;;;;;;;9.98;8.30;;;;;;;21.14;29.49;93475.41;4992372;28;20058;-51
2020/12/28 04:03:02;;;;;;;9.70;8.07;;;;;;;21.29;29.17;93482.31;5035147;28;20048;-53
2020/12/28 04:05:49;;;;;;;10.90;7.60;;;;;;;21.31;29.27;93488.03;5035217;28;20060;-52
2020/12/28 04:08:34;;;;;;;7.30;5.65;;;;;;;21.30;28.97;93481.19;5035025;28;20053;-56
2020/12/28 04:11:33;;;;;;;8.95;7.05;;;;;;;21.49;28.59;93480.88;4978181;28;20045;-53
2020/12/28 04:14:10;;;;;;;8.05;6.60;;;;;;;21.30;28.86;93488.41;5032787;28;20056;-52
2020/12/28 04:16:37;;;;;;;8.30;7.35;;;;;;;21.30;28.98;93477.78;5034841;28;20057;-52
2020/12/28 04:19:04;;;;;;;8.48;6.93;;;;;;;21.88;28.16;93472.22;5034797;28;20055;-54
2020/12/28 04:21:31;;;;;;;2.72;1.90;;;;;;;22.81;25.67;93469.53;5033880;28;20049;-51
2020/12/28 04:23:58;;;;;;;2.50;1.70;;;;;;;24.41;23.25;93466.81;5024272;28;20053;-51
2020/12/28 04:26:25;;;;;;;3.20;1.80;;;;;;;25.06;22.52;93459.72;5015367;28;20058;-53
2020/12/28 04:28:52;;;;;;;3.83;3.10;;;;;;;24.07;23.89;93471.28;5014919;28;20052;-55
2020/12/28 04:31:19;;;;;;;7.30;5.85;;;;;;;23.46;25.36;93481.53;5020186;28;20049;-54
2020/12/28 04:33:47;;;;;;;7.95;6.40;;;;;;;23.21;25.74;93471.72;5031747;28;20045;-54
2020/12/28 04:36:14;;;;;;;8.95;7.88;;;;;;;22.50;26.82;93479.09;5028320;28;20076;-52
2020/12/28 04:38:41;;;;;;;11.40;8.52;;;;;;;22.36;26.95;93482.53;5034558;28;20045;-54
2020/12/28 04:41:08;;;;;;;11.73;9.82;;;;;;;21.95;27.88;93476.78;5034437;28;20060;-52
2020/12/28 04:43:35;;;;;;;9.98;8.88;;;;;;;21.24;29.01;93475.47;5053504;28;20474;-54
2020/12/28 04:46:03;;;;;;;11.18;8.80;;;;;;;21.74;28.15;93496.13;5033855;28;20056;-54
2020/12/28 04:48:33;;;;;;;10.93;8.55;;;;;;;21.58;28.64;93493.03;5034135;28;20064;-51
2020/12/28 04:51:01;;;;;;;9.75;7.90;;;;;;;21.82;28.28;93492.34;5033962;28;20053;-53
2020/12/28 04:53:30;;;;;;;9.73;7.28;;;;;;;21.51;28.43;93497.22;5057601;28;20044;-53
2020/12/28 04:55:57;;;;;;;9.43;7.63;;;;;;;21.41;28.66;93494.53;5074239;28;20052;-53
2020/12/28 04:58:25;;;;;;;9.48;7.57;;;;;;;21.21;28.82;93507.34;5074048;28;20056;-52
2020/12/28 05:01:02;;;;;;;9.13;6.68;;;;;;;22.26;27.64;93507.25;5073946;28;20045;-54
2020/12/28 05:03:29;;;;;;;8.10;6.82;;;;;;;22.97;26.69;93520.53;5061840;28;20037;-52
2020/12/28 05:05:56;;;;;;;8.82;7.32;;;;;;;23.56;25.67;93520.75;5043975;28;20052;-52
2020/12/28 05:08:24;;;;;;;10.05;8.18;;;;;;;23.50;25.93;93519.59;5033648;28;20049;-53
2020/12/28 05:10:51;;;;;;;8.88;7.97;;;;;;;23.32;25.77;93528.44;5040208;28;20057;-53
2020/12/28 05:13:19;;;;;;;9.27;7.93;;;;;;;23.21;26.17;93540.28;5056835;28;20052;-53
2020/12/28 05:15:55;;;;;;;10.02;7.93;;;;;;;22.26;27.43;93536.53;5074207;28;20077;-53
2020/12/28 05:18:22;;;;;;;9.88;7.07;;;;;;;22.98;26.65;93540.72;5073910;28;20048;-51
2020/12/28 05:20:50;;;;;;;8.05;6.47;;;;;;;22.02;27.71;93548.63;5073756;28;20737;-54
2020/12/28 05:23:18;;;;;;;10.02;7.57;;;;;;;22.09;27.86;93544.13;5053757;28;20053;-53
2020/12/28 05:25:47;;;;;;;8.40;6.85;;;;;;;21.60;28.30;93549.28;5073841;28;20048;-54
2020/12/28 05:28:17;;;;;;;9.13;7.18;;;;;;;21.36;28.73;93538.19;5043995;28;20049;-52
2020/12/28 05:30:45;;;;;;;6.85;5.18;;;;;;;22.58;26.21;93553.28;5033734;28;20052;-55
2020/12/28 05:33:12;;;;;;;6.30;5.10;;;;;;;22.36;26.49;93551.75;5050316;28;20079;-53
2020/12/28 05:35:40;;;;;;;10.75;7.85;;;;;;;21.87;27.36;93555.09;5073599;28;20474;-55
2020/12/28 05:38:08;;;;;;;9.93;8.00;;;;;;;21.28;28.67;93567.75;5073651;28;20052;-52
2020/12/28 05:40:36;;;;;;;10.07;8.40;;;;;;;21.03;29.23;93565.69;5077008;28;20059;-52
2020/12/28 05:43:04;;;;;;;9.30;8.02;;;;;;;21.34;28.87;93568.91;5074372;28;20063;-52
2020/12/28 05:45:33;;;;;;;9.60;7.80;;;;;;;21.17;29.02;93559.72;5077730;28;20052;-51
2020/12/28 05:48:01;;;;;;;11.30;8.80;;;;;;;21.27;29.20;93566.22;5068817;28;20373;-54
2020/12/28 05:50:31;;;;;;;10.43;8.40;;;;;;;21.17;29.21;93559.72;5037530;28;20084;-51
2020/12/28 05:53:00;;;;;;;10.75;8.60;;;;;;;21.44;28.90;93568.22;5049283;28;20059;-52
2020/12/28 05:55:29;;;;;;;9.48;8.00;;;;;;;21.49;28.81;93568.63;5077644;28;20370;-57
2020/12/28 05:57:58;;;;;;;14.20;12.57;;;;;;;20.93;29.66;93577.78;5077513;28;20048;-51
2020/12/28 06:00:26;;;;;;;11.82;7.95;;;;;;;20.89;29.78;93566.38;5077317;28;20049;-53
2020/12/28 06:02:53;;;;;;;12.48;10.55;;;;;;;21.13;29.31;93575.63;5068663;28;20455;-61
2020/12/28 06:05:20;;;;;;;13.18;10.20;;;;;;;22.14;28.19;93575.69;5059622;28;20056;-55
2020/12/28 06:07:48;;;;;;;12.73;9.73;;;;;;;22.29;27.62;93573.03;5055343;28;20056;-54
2020/12/28 06:10:15;;;;;;;7.18;5.97;;;;;;;22.25;27.08;93578.38;5045416;28;20060;-58
2020/12/28 06:12:43;;;;;;;4.88;3.20;;;;;;;22.46;26.91;93588.28;5046686;28;20048;-54
2020/12/28 06:15:20;;;;;;;10.45;8.90;;;;;;;23.91;24.98;93597.97;5077100;28;20056;-66
2020/12/28 06:17:47;;;;;;;10.43;8.60;;;;;;;22.91;26.67;93610.78;5040629;28;20057;-60
2020/12/28 06:20:15;;;;;;;10.32;8.50;;;;;;;23.37;26.02;93597.34;5041684;28;20443;-54
2020/12/28 06:22:43;;;;;;;9.57;8.18;;;;;;;23.63;25.29;93619.41;5059448;28;20049;-54
2020/12/28 06:25:16;;;;;;;12.60;10.02;;;;;;;23.41;25.61;93623.25;5076990;28;20048;-57
2020/12/28 06:27:44;;;;;;;8.65;7.30;;;;;;;22.49;27.03;93619.47;5077004;28;20052;-53
2020/12/28 06:30:19;;;;;;;9.00;7.00;;;;;;;22.98;26.77;93628.66;5076856;28;20052;-58
2020/12/28 06:32:49;;;;;;;11.38;9.68;;;;;;;23.53;25.53;93609.53;5073536;28;20037;-58
2020/12/28 06:35:17;;;;;;;10.23;8.43;;;;;;;22.35;27.57;93616.78;5056834;28;20398;-55
2020/12/28 06:37:53;;;;;;;8.57;7.60;;;;;;;22.11;28.00;93621.69;5056756;28;20044;-54
2020/12/28 06:40:40;;;;;;;7.28;6.43;;;;;;;23.68;25.48;93627.00;5036686;28;20468;-53
2020/12/28 06:43:12;;;;;;;7.72;6.47;;;;;;;22.93;26.74;93623.72;5046366;28;20045;-55
2020/12/28 06:45:41;;;;;;;6.97;6.22;;;;;;;23.50;25.83;93620.97;5056698;28;20079;-54
2020/12/28 06:48:23;;;;;;;8.98;7.43;;;;;;;21.97;28.11;93610.22;5056582;28;20049;-56
2020/12/28 06:50:51;;;;;;;8.32;7.40;;;;;;;22.30;27.72;93606.50;5035963;28;20046;-53
2020/12/28 06:53:26;;;;;;;10.18;7.10;;;;;;;22.33;27.75;93616.41;5049798;28;20052;-54
2020/12/28 06:55:53;;;;;;;7.78;6.63;;;;;;;21.86;28.22;93615.50;5076870;28;20435;-52
2020/12/28 06:58:21;;;;;;;8.75;7.00;;;;;;;21.84;28.30;93617.75;5059295;28;20053;-55
2020/12/28 07:00:48;;;;;;;8.60;6.93;;;;;;;21.64;28.82;93616.56;5036387;28;20064;-53
2020/12/28 07:03:16;;;;;;;10.25;8.40;;;;;;;21.60;29.21;93619.22;5043812;28;20049;-54
2020/12/28 07:05:44;;;;;;;9.45;8.27;;;;;;;21.88;28.70;93610.56;5056251;28;20049;-56
2020/12/28 07:08:11;;;;;;;9.98;8.50;;;;;;;21.85;28.92;93619.28;5056143;28;20048;-54
2020/12/28 07:10:38;;;;;;;8.88;7.97;;;;;;;22.88;26.93;93624.09;5055975;28;20060;-52
2020/12/28 07:13:06;;;;;;;9.32;7.50;;;;;;;21.68;29.54;93615.44;5053619;28;20049;-56
2020/12/28 07:15:35;;;;;;;8.88;7.65;;;;;;;21.78;29.13;93608.63;5055986;28;20057;-56
2020/12/28 07:18:09;;;;;;;9.45;7.93;;;;;;;21.58;29.56;93626.00;5055986;28;20059;-55
2020/12/28 07:20:36;;;;;;;20.00;16.00;;;;;;;21.58;30.06;93623.34;5055811;28;20681;-53
2020/12/28 07:23:04;;;;;;;19.95;15.63;;;;;;;21.63;29.32;93620.34;5055680;28;20470;-57
2020/12/28 07:25:31;;;;;;;20.85;16.50;;;;;;;21.53;29.59;93613.84;5055997;28;20076;-53
2020/12/28 07:27:58;;;;;;;23.60;18.48;;;;;;;21.53;29.71;93613.84;5055933;28;20057;-55
2020/12/28 07:30:25;;;;;;;15.38;12.65;;;;;;;21.60;29.39;93607.78;5054876;28;20048;-55
2020/12/28 07:32:58;;;;;;;14.20;10.68;;;;;;;21.86;29.56;93618.19;5055394;28;20048;-55
2020/12/28 07:35:26;;;;;;;10.63;7.40;;;;;;;21.74;29.49;93619.25;5055432;28;20075;-57
2020/12/28 07:37:53;;;;;;;8.73;6.00;;;;;;;21.80;28.81;93633.72;5055640;28;20360;-54
2020/12/28 07:40:20;;;;;;;8.35;4.35;;;;;;;22.02;28.44;93639.13;5055633;28;20041;-56
2020/12/28 07:42:48;;;;;;;5.45;3.60;;;;;;;22.19;28.43;93646.44;5054954;28;20058;-53
2020/12/28 07:45:15;;;;;;;5.63;3.22;;;;;;;22.43;27.98;93636.97;5055333;28;20060;-53
2020/12/28 07:47:48;;;;;;;4.07;2.78;;;;;;;22.47;27.05;93637.75;5054635;28;20447;-53
2020/12/28 07:50:16;;;;;;;11.13;6.88;;;;;;;22.58;27.24;93649.16;5055401;28;20741;-54
2020/12/28 07:53:07;;;;;;;10.18;8.45;;;;;;;22.66;27.06;93642.72;5066679;28;20040;-56
2020/12/28 07:55:48;;;;;;;9.57;8.57;;;;;;;22.20;27.81;93645.28;5074103;28;20051;-55
2020/12/28 07:58:23;;;;;;;9.65;8.18;;;;;;;22.92;26.99;93651.53;5075301;28;20387;-53
2020/12/28 08:00:51;;;;;;;10.23;8.82;;;;;;;23.53;25.86;93652.19;5064053;28;20383;-54
2020/12/28 08:03:34;;;;;;;10.73;8.40;;;;;;;23.07;26.57;93645.03;5062325;28;20048;-56
2020/12/28 08:06:08;;;;;;;9.02;7.93;;;;;;;22.60;27.26;93630.91;5055146;28;20064;-54
2020/12/28 08:08:35;;;;;;;9.57;7.80;;;;;;;22.63;27.22;93626.72;5070563;28;20049;-56
2020/12/28 08:11:04;;;;;;;9.38;7.82;;;;;;;22.29;27.77;93623.63;5054897;28;20048;-53
2020/12/28 08:13:33;;;;;;;13.38;8.00;;;;;;;22.03;28.38;93614.03;5041418;28;20045;-58
2020/12/28 08:16:09;;;;;;;9.02;7.70;;;;;;;22.20;28.13;93623.25;5034836;28;20057;-53
2020/12/28 08:18:55;;;;;;;10.18;7.80;;;;;;;22.60;28.42;93609.59;5034803;28;20056;-55
2020/12/28 08:21:23;;;;;;;8.68;7.28;;;;;;;23.53;27.25;93596.19;5033679;28;20080;-53
2020/12/28 08:23:55;;;;;;;9.55;7.53;;;;;;;23.61;28.06;93595.03;5034691;28;20049;-57
2020/12/28 08:26:25;;;;;;;12.03;7.60;;;;;;;23.95;27.40;93588.03;5034804;28;20049;-56
2020/12/28 08:28:57;;;;;;;12.07;8.10;;;;;;;24.08;26.91;93611.63;5034614;28;20295;-56
2020/12/28 08:31:25;;;;;;;;;;;;;;;24.30;26.85;93591.69;5035026;28;20475;-55
2020/12/28 08:33:59;;;;;;;9.88;8.48;;;;;;;24.74;26.21;93598.25;5046111;28;19925;-56
2020/12/28 08:36:26;;;;;;;10.82;7.63;;;;;;;24.32;25.80;93594.72;5034564;28;20060;-55
2020/12/28 08:38:54;;;;;;;9.48;8.00;;;;;;;24.70;25.02;93586.81;5034422;28;20049;-52
2020/12/28 08:41:21;;;;;;;9.07;7.05;;;;;;;25.27;25.32;93570.31;5034423;28;20053;-54
2020/12/28 08:43:48;;;;;;;6.63;5.88;;;;;;;25.46;24.36;93583.84;5055793;28;20364;-55
2020/12/28 08:46:21;;;;;;;6.95;5.30;;;;;;;25.31;23.76;93590.50;5038017;28;20056;-55
2020/12/28 08:48:49;;;;;;;4.88;4.30;;;;;;;25.27;22.88;93592.47;5034315;28;20065;-53
2020/12/28 08:51:17;;;;;;;6.63;4.55;;;;;;;25.12;23.39;93588.41;5034232;28;20060;-54
2020/12/28 08:53:45;;;;;;;3.97;3.42;;;;;;;25.55;23.13;93585.28;5070013;28;20048;-55
2020/12/28 08:56:12;;;;;;;2.80;1.90;;;;;;;25.73;21.94;93567.88;5074028;28;20056;-56
2020/12/28 08:58:39;;;;;;;3.72;2.60;;;;;;;26.10;21.93;93571.63;5073909;28;20067;-58
2020/12/28 09:01:07;;;;;;;5.40;3.50;;;;;;;25.50;22.38;93570.41;5074059;28;20490;-55
2020/12/28 09:03:37;;;;;;;6.65;5.07;;;;;;;26.07;22.52;93573.22;5057323;28;20435;-55
2020/12/28 09:06:05;;;;;;;11.32;10.13;;;;;;;25.69;22.29;93574.44;5053969;28;20045;-56
2020/12/28 09:08:32;;;;;;;10.20;9.02;;;;;;;26.02;23.39;93575.56;5053855;28;20053;-55
2020/12/28 09:10:59;;;;;;;9.98;8.70;;;;;;;25.99;22.76;93582.47;5041536;28;20045;-55
2020/12/28 09:13:27;;;;;;;8.80;7.90;;;;;;;26.50;22.35;93561.13;5049855;28;20055;-58
2020/12/28 09:15:54;;;;;;;9.48;8.18;;;;;;;26.55;22.20;93560.69;5052456;28;20048;-61
2020/12/28 09:18:21;;;;;;;6.07;4.53;;;;;;;26.55;20.96;93552.66;5034074;28;20053;-54
2020/12/28 09:20:48;;;;;;;5.13;3.50;;;;;;;26.98;21.41;93558.81;5033759;28;20057;-53
2020/12/28 09:23:15;;;;;;;5.97;4.85;;;;;;;26.56;21.29;93568.31;5059620;28;20047;-55
2020/12/28 09:25:42;;;;;;;4.53;3.05;;;;;;;26.59;20.31;93569.44;5073896;28;20044;-55
2020/12/28 09:28:09;;;;;;;2.80;2.10;;;;;;;28.09;17.27;93570.94;5073833;28;20055;-54
2020/12/28 09:30:36;;;;;;;2.95;1.45;;;;;;;27.60;19.74;93568.09;5038949;28;20048;-59
2020/12/28 09:33:03;;;;;;;2.70;1.55;;;;;;;27.77;19.30;93562.78;5055829;28;20052;-57
2020/12/28 09:35:30;;;;;;;2.00;1.55;;;;;;;27.90;19.28;93555.63;5058652;28;20065;-55
2020/12/28 09:37:57;;;;;;;2.13;1.40;;;;;;;28.04;18.34;93549.94;5033739;28;20387;-59
2020/12/28 09:40:24;;;;;;;3.70;2.22;;;;;;;28.47;18.32;93549.03;5033660;28;20483;-56
2020/12/28 09:42:51;;;;;;;2.88;1.92;;;;;;;28.48;18.51;93529.03;5043564;28;20049;-55
2020/12/28 09:45:36;;;;;;;2.30;1.30;;;;;;;28.20;18.16;93525.78;5053631;28;20041;-54
2020/12/28 09:48:07;;;;;;;1.98;1.42;;;;;;;28.02;17.71;93541.53;5053643;28;20057;-55
2020/12/28 09:50:36;;;;;;;1.55;1.00;;;;;;;27.97;16.87;93550.09;5053357;28;20443;-53
2020/12/28 09:53:04;;;;;;;1.60;1.00;;;;;;;27.89;16.85;93546.06;5053671;28;20049;-58
2020/12/28 09:55:31;;;;;;;3.53;1.42;;;;;;;27.85;17.21;93537.31;5033699;28;20372;-58
2020/12/28 09:57:58;;;;;;;1.50;1.10;;;;;;;27.52;17.86;93518.38;5033617;28;20049;-55
2020/12/28 10:00:25;;;;;;;1.90;1.20;;;;;;;28.00;17.85;93517.03;5033349;28;20372;-57
2020/12/28 10:02:52;;;;;;;2.28;1.48;;;;;;;27.96;18.05;93510.97;5050531;28;20049;-58
2020/12/28 10:05:20;;;;;;;2.75;1.10;;;;;;;28.11;17.29;93506.81;5073521;28;20044;-54
2020/12/28 10:07:47;;;;;;;3.17;1.30;;;;;;;28.48;16.44;93518.28;5054373;28;20045;-53
2020/12/28 10:10:14;;;;;;;1.83;1.20;;;;;;;28.22;17.51;93491.19;5033383;28;20045;-52
2020/12/28 10:12:41;;;;;;;2.45;1.40;;;;;;;28.31;16.51;93503.31;5039552;28;20045;-55
2020/12/28 10:15:08;;;;;;;2.10;1.10;;;;;;;28.32;16.60;93478.72;5053364;28;20055;-56
2020/12/28 10:17:36;;;;;;;1.63;1.10;;;;;;;28.29;15.84;93494.91;5053375;28;20049;-57
2020/12/28 10:20:04;;;;;;;3.22;1.30;;;;;;;28.31;17.62;93482.56;5053260;28;20360;-57
2020/12/28 10:22:31;;;;;;;1.58;0.68;;;;;;;28.30;15.14;93474.94;5058197;28;20386;-57
2020/12/28 10:24:58;;;;;;;1.85;0.82;;;;;;;27.61;17.12;93481.00;5053411;28;20448;-53
2020/12/28 10:27:25;;;;;;;1.15;0.75;;;;;;;29.32;15.61;93482.34;5036967;28;20045;-59
2020/12/28 10:29:52;;;;;;;2.65;0.70;;;;;;;28.91;15.72;93475.00;5036794;28;20053;-53
2020/12/28 10:32:19;;;;;;;1.33;0.80;;;;;;;27.86;15.92;93469.00;5043168;28;20044;-53
2020/12/28 10:34:46;;;;;;;1.98;0.88;;;;;;;27.98;15.88;93465.66;5076353;28;20076;-53
2020/12/28 10:37:14;;;;;;;1.90;0.68;;;;;;;28.49;14.32;93477.53;5053741;28;20719;-54
2020/12/28 10:39:41;;;;;;;1.52;0.68;;;;;;;28.90;13.99;93467.34;5036760;28;20060;-56
2020/12/28 10:42:08;;;;;;;1.35;0.70;;;;;;;29.85;13.77;93455.09;5039478;28;20049;-55
2020/12/28 10:44:35;;;;;;;2.20;0.73;;;;;;;29.29;15.12;93461.66;5041623;28;20041;-54
2020/12/28 10:47:02;;;;;;;1.27;0.57;;;;;;;29.30;15.09;93452.41;5036842;28;20057;-56
2020/12/28 10:49:29;;;;;;;1.10;0.60;;;;;;;29.39;15.60;93455.22;5036545;28;20464;-54
2020/12/28 10:51:56;;;;;;;2.38;0.70;;;;;;;29.46;15.53;93455.06;5036664;28;20053;-56
2020/12/28 10:54:23;;;;;;;1.35;0.68;;;;;;;30.40;13.99;93448.41;5075442;28;20052;-54
2020/12/28 10:56:50;;;;;;;1.80;0.70;;;;;;;29.75;13.73;93435.38;5076517;28;20052;-55
2020/12/28 10:59:17;;;;;;;3.38;0.90;;;;;;;29.99;13.95;93441.22;5076007;28;20044;-54
2020/12/28 11:01:44;;;;;;;1.35;0.77;;;;;;;30.16;13.82;93450.69;5076191;28;20051;-56
2020/12/28 11:04:12;;;;;;;1.08;0.60;;;;;;;30.01;13.55;93444.22;5058306;28;20057;-56
2020/12/28 11:06:42;;;;;;;1.52;0.80;;;;;;;29.49;14.03;93464.22;5056244;28;20051;-56
2020/12/28 11:09:09;;;;;;;2.25;0.73;;;;;;;30.14;14.13;93446.91;5056129;28;20052;-57
2020/12/28 11:11:36;;;;;;;2.30;0.65;;;;;;;29.80;13.01;93445.63;5056344;28;20041;-58
2020/12/28 11:14:03;;;;;;;2.05;0.88;;;;;;;30.67;13.67;93451.38;5071692;28;20059;-53
2020/12/28 11:16:30;;;;;;;1.40;0.70;;;;;;;29.39;14.55;93439.06;5075310;28;20222;-55
2020/12/28 11:18:57;;;;;;;2.55;0.80;;;;;;;29.42;14.47;93438.22;5075894;28;20060;-57
2020/12/28 11:21:25;;;;;;;1.33;0.70;;;;;;;29.32;14.80;93438.53;5075987;28;20048;-54
2020/12/28 11:24:01;;;;;;;1.27;0.70;;;;;;;30.09;13.41;93413.19;5075599;28;20048;-55
2020/12/28 11:26:33;;;;;;;1.08;0.60;;;;;;;29.68;14.20;93433.66;5075909;28;20044;-53
2020/12/28 11:29:05;;;;;;;1.90;0.73;;;;;;;30.82;12.50;93461.69;5075720;28;20057;-53
2020/12/28 11:31:33;;;;;;;3.15;0.82;;;;;;;31.07;11.85;93433.88;5070514;28;20048;-54
2020/12/28 11:34:00;;;;;;;2.75;1.02;;;;;;;30.50;13.10;93436.53;5065874;28;20048;-53
2020/12/28 11:36:27;;;;;;;1.65;0.50;;;;;;;30.48;13.23;93438.91;5075053;28;20367;-54
2020/12/28 11:38:54;;;;;;;1.23;0.60;;;;;;;30.14;13.38;93441.53;5075493;28;20116;-54
2020/12/28 11:41:21;;;;;;;1.55;0.45;;;;;;;30.00;14.25;93448.84;5076006;28;20418;-53
2020/12/28 11:43:48;;;;;;;2.10;1.05;;;;;;;29.93;14.00;93453.72;5072564;28;20056;-55
2020/12/28 11:46:15;;;;;;;2.92;1.23;;;;;;;29.55;15.11;93457.13;5041844;28;20044;-58
2020/12/28 11:48:43;;;;;;;1.80;1.15;;;;;;;30.14;14.04;93453.06;5035342;28;20060;-58
2020/12/28 11:51:10;;;;;;;2.70;0.95;;;;;;;30.35;13.55;93462.44;5035378;28;20456;-53